createdAt,value
2017-09-19T00:01:09.382Z,97.30
2017-09-19T00:03:38.660Z,97.40
2017-09-19T00:06:07.799Z,97.30
2017-09-19T00:08:35.923Z,97.30
2017-09-19T00:11:05.916Z,97.20
2017-09-19T00:13:35.028Z,97.30
2017-09-19T00:16:03.108Z,97.10
2017-09-19T00:18:34.299Z,97.20
2017-09-19T00:21:03.499Z,97.40
2017-09-19T00:23:31.652Z,97.40
2017-09-19T00:26:00.326Z,97.20
2017-09-19T00:28:28.435Z,97.30
2017-09-19T00:30:56.612Z,97.40
2017-09-19T00:33:24.707Z,97.30
2017-09-19T00:35:52.833Z,97.30
2017-09-19T00:38:20.928Z,97.40
2017-09-19T00:40:50.010Z,97.40
2017-09-19T00:43:18.163Z,97.20
2017-09-19T00:45:46.877Z,97.10
2017-09-19T00:48:15.029Z,97.20
2017-09-19T00:50:43.706Z,97.20
2017-09-19T00:53:11.856Z,97.50
2017-09-19T00:55:40.741Z,97.50
2017-09-19T00:58:09.874Z,97.20
2017-09-19T01:00:37.999Z,97.10
2017-09-19T01:03:06.269Z,97.10
2017-09-19T01:05:34.376Z,97.10
2017-09-19T01:08:02.502Z,97.20
2017-09-19T01:10:30.605Z,97.10
2017-09-19T01:12:58.699Z,96.90
2017-09-19T01:15:27.481Z,97.00
2017-09-19T01:17:55.624Z,97.10
2017-09-19T01:20:23.777Z,97.20
2017-09-19T01:22:51.895Z,97.20
2017-09-19T01:25:20.813Z,96.80
2017-09-19T01:27:48.924Z,96.80
2017-09-19T01:30:17.039Z,97.00
2017-09-19T01:32:45.235Z,97.00
2017-09-19T01:35:13.344Z,96.80
2017-09-19T01:37:44.533Z,97.10
2017-09-19T01:40:18.537Z,97.20
2017-09-19T01:42:47.452Z,97.00
2017-09-19T01:45:15.691Z,97.00
2017-09-19T01:47:44.891Z,97.30
2017-09-19T01:50:14.272Z,97.10
2017-09-19T01:52:42.609Z,97.10
2017-09-19T01:55:10.732Z,97.10
2017-09-19T01:57:38.999Z,97.10
2017-09-19T02:00:07.112Z,97.00
2017-09-19T02:02:35.630Z,97.10
2017-09-19T02:05:03.740Z,96.70
2017-09-19T02:07:31.862Z,97.10
2017-09-19T02:09:59.989Z,97.30
2017-09-19T02:12:28.123Z,97.30
2017-09-19T02:14:57.184Z,97.30
2017-09-19T02:17:25.320Z,97.40
2017-09-19T02:19:53.438Z,97.20
2017-09-19T02:22:21.531Z,97.30
2017-09-19T02:24:49.635Z,97.30
2017-09-19T02:27:17.731Z,97.40
2017-09-19T02:29:46.579Z,97.50
2017-09-19T02:32:14.684Z,97.30
2017-09-19T02:34:42.791Z,97.30
2017-09-19T02:37:10.924Z,97.30
2017-09-19T02:39:39.058Z,97.40
2017-09-19T02:42:07.193Z,97.40
2017-09-19T02:44:36.072Z,97.30
2017-09-19T02:47:04.188Z,97.30
2017-09-19T02:49:32.301Z,97.30
2017-09-19T02:52:00.444Z,97.30
2017-09-19T02:54:28.651Z,97.20
2017-09-19T02:56:56.789Z,97.00
2017-09-19T02:59:24.896Z,97.30
2017-09-19T03:01:53.003Z,97.40
2017-09-19T03:04:21.157Z,97.30
2017-09-19T03:06:49.727Z,96.90
2017-09-19T03:09:18.884Z,97.10
2017-09-19T03:11:46.972Z,97.10
2017-09-19T03:14:15.082Z,97.20
2017-09-19T03:16:43.183Z,97.10
2017-09-19T03:19:11.299Z,97.10
2017-09-19T03:21:39.387Z,97.10
2017-09-19T03:24:07.516Z,96.90
2017-09-19T03:26:38.934Z,96.60
2017-09-19T03:29:07.795Z,96.90
2017-09-19T03:31:36.923Z,96.90
2017-09-19T03:34:05.779Z,96.80
2017-09-19T03:36:33.877Z,96.80
2017-09-19T03:39:02.756Z,96.60
2017-09-19T03:41:31.627Z,96.60
2017-09-19T03:43:59.748Z,96.60
2017-09-19T03:46:27.850Z,96.50
2017-09-19T03:48:55.980Z,96.90
2017-09-19T03:51:24.085Z,96.90
2017-09-19T03:53:52.211Z,96.80
2017-09-19T03:56:21.950Z,96.50
2017-09-19T03:58:50.197Z,96.90
2017-09-19T04:01:18.332Z,96.80
2017-09-19T04:03:46.432Z,96.80
2017-09-19T04:06:14.520Z,96.60
2017-09-19T04:08:42.652Z,96.70
2017-09-19T04:11:10.751Z,96.50
2017-09-19T04:13:39.731Z,96.70
2017-09-19T04:16:07.816Z,96.50
2017-09-19T04:18:35.914Z,96.50
2017-09-19T04:21:04.045Z,96.60
2017-09-19T04:23:32.153Z,96.50
2017-09-19T04:26:00.256Z,96.60
2017-09-19T04:28:28.348Z,96.50
2017-09-19T04:30:56.466Z,96.60
2017-09-19T04:33:24.577Z,96.50
2017-09-19T04:35:52.704Z,96.70
2017-09-19T04:38:20.832Z,96.70
2017-09-19T04:40:50.925Z,96.60
2017-09-19T04:43:19.825Z,96.80
2017-09-19T04:45:47.953Z,96.80
2017-09-19T04:48:16.979Z,96.40
2017-09-19T04:50:45.850Z,96.40
2017-09-19T04:53:13.978Z,96.40
2017-09-19T04:55:42.087Z,96.30
2017-09-19T04:58:11.211Z,96.30
2017-09-19T05:00:39.315Z,96.50
2017-09-19T05:03:08.631Z,96.30
2017-09-19T05:05:36.928Z,96.40
2017-09-19T05:08:05.553Z,96.90
2017-09-19T05:10:33.659Z,96.80
2017-09-19T05:13:01.799Z,96.40
2017-09-19T05:15:29.897Z,96.50
2017-09-19T05:17:58.012Z,96.80
2017-09-19T05:20:26.095Z,96.10
2017-09-19T05:22:54.199Z,96.30
2017-09-19T05:25:22.320Z,96.30
2017-09-19T05:27:50.427Z,96.30
2017-09-19T05:30:21.007Z,96.10
2017-09-19T05:32:49.123Z,96.10
2017-09-19T05:35:17.216Z,96.10
2017-09-19T05:37:45.406Z,96.30
2017-09-19T05:40:13.515Z,96.30
2017-09-19T05:42:41.650Z,96.30
2017-09-19T05:45:09.781Z,96.50
2017-09-19T05:47:37.848Z,96.30
2017-09-19T05:50:05.980Z,96.50
2017-09-19T05:52:34.998Z,96.40
2017-09-19T05:55:03.112Z,96.30
2017-09-19T05:57:31.215Z,96.50
2017-09-19T06:00:00.267Z,96.50
2017-09-19T06:02:30.208Z,96.50
2017-09-19T06:04:58.296Z,96.60
2017-09-19T06:07:26.399Z,96.70
2017-09-19T06:09:54.579Z,96.70
2017-09-19T06:12:23.681Z,96.50
2017-09-19T06:14:51.785Z,96.50
2017-09-19T06:17:19.912Z,96.60
2017-09-19T06:19:48.161Z,96.50
2017-09-19T06:22:18.442Z,96.50
2017-09-19T06:24:47.323Z,96.40
2017-09-19T06:27:15.956Z,96.30
2017-09-19T06:29:44.073Z,96.40
2017-09-19T06:32:12.189Z,96.60
2017-09-19T06:34:40.275Z,96.70
2017-09-19T06:37:09.175Z,96.90
2017-09-19T06:39:37.292Z,96.80
2017-09-19T06:42:06.134Z,96.80
2017-09-19T06:44:34.249Z,96.80
2017-09-19T06:47:02.339Z,96.60
2017-09-19T06:49:31.199Z,96.90
2017-09-19T06:51:59.343Z,96.90
2017-09-19T06:54:27.438Z,97.00
2017-09-19T06:56:55.554Z,97.10
2017-09-19T06:59:23.803Z,97.00
2017-09-19T07:01:51.920Z,96.90
2017-09-19T07:04:20.018Z,96.90
2017-09-19T07:06:49.156Z,97.20
2017-09-19T07:09:17.271Z,97.30
2017-09-19T07:11:45.372Z,97.00
2017-09-19T07:14:13.608Z,97.20
2017-09-19T07:16:41.709Z,97.40
2017-09-19T07:19:09.824Z,97.50
2017-09-19T07:21:38.675Z,97.50
2017-09-19T07:24:06.795Z,97.50
2017-09-19T07:26:35.733Z,97.40
2017-09-19T07:29:03.913Z,97.40
2017-09-19T07:31:34.111Z,97.50
2017-09-19T07:34:02.248Z,97.40
2017-09-19T07:36:30.404Z,97.50
2017-09-19T07:38:58.600Z,97.50
2017-09-19T07:41:26.805Z,97.40
2017-09-19T07:43:54.977Z,97.50
2017-09-19T07:46:26.764Z,97.40
2017-09-19T07:48:55.985Z,97.30
2017-09-19T07:51:24.953Z,97.40
2017-09-19T07:53:53.191Z,97.40
2017-09-19T07:56:23.283Z,97.30
2017-09-19T07:58:55.043Z,97.10
2017-09-19T08:01:23.949Z,97.30
2017-09-19T08:03:52.051Z,97.40
2017-09-19T08:06:20.195Z,97.40
2017-09-19T08:08:48.301Z,97.10
2017-09-19T08:11:17.343Z,97.10
2017-09-19T08:13:47.518Z,97.40
2017-09-19T08:16:15.628Z,97.10
2017-09-19T08:18:46.058Z,97.30
2017-09-19T08:21:15.284Z,97.30
2017-09-19T08:23:43.437Z,97.10
2017-09-19T08:26:12.373Z,97.20
2017-09-19T08:28:40.510Z,97.20
2017-09-19T08:31:09.177Z,97.10
2017-09-19T08:33:38.368Z,97.10
2017-09-19T08:36:06.574Z,97.10
2017-09-19T08:38:35.703Z,96.40
2017-09-19T08:41:03.913Z,96.40
2017-09-19T08:43:32.327Z,96.20
2017-09-19T08:46:00.427Z,96.30
2017-09-19T08:48:28.534Z,96.30
2017-09-19T08:51:00.395Z,96.00
2017-09-19T08:53:30.323Z,96.10
2017-09-19T08:55:58.484Z,96.80
2017-09-19T08:58:26.593Z,96.80
2017-09-19T09:00:54.921Z,96.30
2017-09-19T09:03:23.040Z,96.50
2017-09-19T09:05:52.153Z,96.20
2017-09-19T09:08:21.054Z,96.30
2017-09-19T09:10:49.188Z,96.30
2017-09-19T09:13:17.291Z,96.10
2017-09-19T09:15:45.840Z,96.20
2017-09-19T09:18:14.069Z,96.30
2017-09-19T09:20:42.165Z,96.30
2017-09-19T09:23:10.298Z,96.30
2017-09-19T09:25:38.427Z,95.50
2017-09-19T09:28:07.008Z,95.70
2017-09-19T09:30:35.109Z,95.90
2017-09-19T09:33:03.248Z,95.60
2017-09-19T09:35:31.359Z,95.90
2017-09-19T09:37:59.706Z,96.10
2017-09-19T09:40:27.873Z,96.20
2017-09-19T09:42:56.107Z,95.40
2017-09-19T09:45:25.858Z,95.40
2017-09-19T09:47:54.870Z,95.30
2017-09-19T09:50:23.853Z,94.90
2017-09-19T09:52:52.200Z,94.80
2017-09-19T09:55:20.313Z,94.80
2017-09-19T09:57:48.448Z,95.30
2017-09-19T10:00:16.786Z,95.50
2017-09-19T10:02:45.718Z,96.10
2017-09-19T10:05:14.370Z,95.20
2017-09-19T10:07:43.290Z,95.70
2017-09-19T10:10:11.587Z,95.60
2017-09-19T10:12:39.739Z,95.40
2017-09-19T10:15:07.851Z,94.70
2017-09-19T10:17:35.970Z,94.30
2017-09-19T10:20:04.705Z,95.20
2017-09-19T10:22:32.921Z,95.30
2017-09-19T10:25:01.027Z,95.30
2017-09-19T10:27:29.682Z,95.20
2017-09-19T10:29:58.739Z,95.00
2017-09-19T10:32:26.869Z,95.50
2017-09-19T10:34:55.060Z,95.20
2017-09-19T10:37:23.167Z,95.10
2017-09-19T10:39:51.276Z,93.80
2017-09-19T10:42:20.118Z,93.90
2017-09-19T10:44:48.835Z,94.10
2017-09-19T10:47:16.947Z,94.50
2017-09-19T10:49:45.040Z,94.30
2017-09-19T10:52:13.160Z,94.30
2017-09-19T10:54:41.328Z,94.40
2017-09-19T10:57:10.203Z,94.20
2017-09-19T10:59:39.927Z,94.20
2017-09-19T11:02:10.540Z,94.10
2017-09-19T11:04:38.718Z,94.10
2017-09-19T11:07:06.806Z,93.80
2017-09-19T11:09:35.996Z,93.40
2017-09-19T11:12:04.920Z,93.90
2017-09-19T11:14:33.200Z,93.80
2017-09-19T11:17:01.382Z,92.90
2017-09-19T11:19:29.504Z,92.40
2017-09-19T11:21:57.980Z,92.30
2017-09-19T11:24:26.335Z,92.40
2017-09-19T11:26:54.702Z,91.70
2017-09-19T11:29:22.804Z,91.40
2017-09-19T11:31:51.289Z,91.70
2017-09-19T11:34:19.378Z,92.20
2017-09-19T11:36:48.311Z,91.20
2017-09-19T11:39:16.406Z,91.20
2017-09-19T11:41:44.512Z,89.70
2017-09-19T11:44:12.599Z,90.80
2017-09-19T11:46:40.825Z,90.30
2017-09-19T11:49:08.950Z,90.00
2017-09-19T11:51:37.070Z,90.90
2017-09-19T11:54:05.171Z,91.60
2017-09-19T11:56:34.031Z,90.90
2017-09-19T11:59:02.356Z,90.90
2017-09-19T12:01:31.267Z,90.90
2017-09-19T12:03:59.347Z,90.90
2017-09-19T12:06:27.457Z,91.10
2017-09-19T12:08:55.607Z,91.30
2017-09-19T12:11:23.758Z,92.20
2017-09-19T12:13:51.856Z,92.70
2017-09-19T12:16:20.001Z,93.60
2017-09-19T12:18:48.105Z,94.10
2017-09-19T12:21:16.275Z,94.50
2017-09-19T12:23:44.391Z,94.10
2017-09-19T12:26:13.258Z,94.90
2017-09-19T12:28:42.391Z,94.90
2017-09-19T12:31:10.475Z,94.80
2017-09-19T12:33:39.544Z,94.40
2017-09-19T12:36:07.673Z,94.50
2017-09-19T12:38:35.807Z,94.80
2017-09-19T12:41:03.923Z,94.40
2017-09-19T12:43:34.004Z,94.50
2017-09-19T12:46:02.098Z,94.50
2017-09-19T12:48:30.230Z,94.60
2017-09-19T12:50:58.501Z,94.40
2017-09-19T12:53:27.006Z,94.20
2017-09-19T12:55:55.095Z,94.30
2017-09-19T12:58:23.203Z,94.10
2017-09-19T13:00:52.379Z,94.40
2017-09-19T13:03:20.576Z,94.20
2017-09-19T13:05:48.661Z,93.30
2017-09-19T13:08:16.772Z,93.30
2017-09-19T13:10:45.040Z,93.50
2017-09-19T13:13:13.183Z,93.00
2017-09-19T13:15:41.487Z,93.40
2017-09-19T13:18:10.622Z,93.80
2017-09-19T13:20:39.807Z,93.80
2017-09-19T13:23:08.609Z,93.00
2017-09-19T13:25:36.702Z,93.10
2017-09-19T13:28:04.815Z,92.40
2017-09-19T13:30:33.039Z,92.60
2017-09-19T13:33:18.913Z,93.50
2017-09-19T13:35:47.117Z,92.60
2017-09-19T13:38:15.371Z,92.50
2017-09-19T13:40:43.572Z,92.30
2017-09-19T13:43:12.640Z,92.40
2017-09-19T13:45:40.833Z,92.30
2017-09-19T13:48:09.071Z,92.00
2017-09-19T13:57:21.422Z,92.00
2017-09-19T13:59:49.569Z,91.60
2017-09-19T14:02:18.899Z,92.50
2017-09-19T14:04:47.007Z,92.50
2017-09-19T14:07:15.138Z,91.80
2017-09-19T14:09:43.236Z,91.20
2017-09-19T14:12:11.349Z,91.10
2017-09-19T14:14:40.080Z,90.60
2017-09-19T14:17:08.234Z,90.70
2017-09-19T14:19:37.414Z,90.70
2017-09-19T14:22:06.332Z,89.90
2017-09-19T14:24:34.452Z,89.80
2017-09-19T14:27:02.541Z,89.30
2017-09-19T14:29:30.983Z,90.90
2017-09-19T14:31:59.494Z,89.60
2017-09-19T14:34:27.600Z,85.20
2017-09-19T14:36:55.751Z,87.20
2017-09-19T14:39:24.635Z,86.70
2017-09-19T14:41:52.757Z,86.70
2017-09-19T14:44:20.891Z,86.60
2017-09-19T14:46:49.900Z,88.10
2017-09-19T14:49:18.067Z,88.10
2017-09-19T14:51:46.178Z,88.00
2017-09-19T14:54:14.309Z,88.50
2017-09-19T14:56:42.579Z,88.30
2017-09-19T14:59:11.499Z,88.80
2017-09-19T15:01:39.602Z,88.80
2017-09-19T15:04:07.744Z,89.70
2017-09-19T15:06:35.845Z,84.10
2017-09-19T15:09:04.214Z,85.20
2017-09-19T15:11:32.592Z,84.70
2017-09-19T15:14:00.699Z,86.20
2017-09-19T15:16:28.920Z,84.00
2017-09-19T15:18:57.000Z,82.10
2017-09-19T15:21:25.107Z,81.60
2017-09-19T15:23:53.230Z,83.10
2017-09-19T15:26:21.356Z,81.30
2017-09-19T15:28:49.500Z,81.80
2017-09-19T15:31:17.598Z,82.60
2017-09-19T15:33:45.735Z,86.70
2017-09-19T15:36:14.372Z,82.50
2017-09-19T15:38:42.571Z,83.50
2017-09-19T15:41:10.659Z,83.60
2017-09-19T15:43:38.753Z,82.90
2017-09-19T15:46:06.857Z,81.80
2017-09-19T15:48:34.963Z,81.40
2017-09-19T15:51:09.624Z,82.30
2017-09-19T15:53:37.735Z,82.20
2017-09-19T15:56:05.864Z,81.50
2017-09-19T15:58:34.338Z,82.80
2017-09-19T16:01:02.463Z,84.70
2017-09-19T16:03:30.555Z,84.80
2017-09-19T16:05:58.718Z,85.60
2017-09-19T16:08:27.656Z,84.20
2017-09-19T16:10:55.799Z,83.50
2017-09-19T16:13:23.913Z,84.00
2017-09-19T16:15:52.096Z,82.80
2017-09-19T16:18:20.207Z,87.60
2017-09-19T16:20:48.321Z,83.50
2017-09-19T16:23:17.281Z,83.80
2017-09-19T16:25:45.431Z,85.50
2017-09-19T16:28:13.553Z,83.80
2017-09-19T16:30:41.679Z,84.40
2017-09-19T16:33:10.719Z,85.20
2017-09-19T16:35:38.815Z,86.50
2017-09-19T16:38:08.688Z,85.50
2017-09-19T16:40:38.944Z,85.80
2017-09-19T16:43:07.638Z,86.50
2017-09-19T16:45:35.755Z,85.80
2017-09-19T16:48:04.658Z,86.40
2017-09-19T16:50:32.784Z,86.40
2017-09-19T16:53:00.965Z,86.90
2017-09-19T16:55:29.099Z,87.90
2017-09-19T16:57:58.203Z,86.40
2017-09-19T17:00:26.355Z,85.70
2017-09-19T17:02:55.296Z,90.10
2017-09-19T17:05:23.882Z,90.20
2017-09-19T17:07:52.127Z,90.50
2017-09-19T17:10:20.247Z,89.20
2017-09-19T17:12:49.141Z,90.10
2017-09-19T17:15:17.253Z,89.60
2017-09-19T17:17:45.372Z,91.30
2017-09-19T17:20:13.513Z,92.00
2017-09-19T17:22:42.577Z,92.30
2017-09-19T17:25:10.687Z,92.50
2017-09-19T17:27:39.045Z,92.20
2017-09-19T17:30:07.127Z,91.30
2017-09-19T17:32:36.009Z,92.70
2017-09-19T17:35:05.345Z,92.60
2017-09-19T17:37:36.890Z,93.20
2017-09-19T17:40:05.012Z,93.40
2017-09-19T17:42:33.105Z,94.00
2017-09-19T17:45:03.218Z,93.80
2017-09-19T17:47:31.322Z,94.20
2017-09-19T17:49:59.485Z,94.30
2017-09-19T17:52:27.582Z,94.20
2017-09-19T18:47:29.274Z,96.20
2017-09-19T18:49:57.450Z,96.20
2017-09-19T18:52:26.660Z,96.40
2017-09-19T18:54:54.803Z,96.40
2017-09-19T18:57:23.092Z,96.00
2017-09-19T18:59:51.616Z,96.00
2017-09-19T19:02:19.727Z,95.80
2017-09-19T19:04:48.691Z,95.60
2017-09-19T19:07:16.794Z,95.60
2017-09-19T19:09:45.683Z,95.70
2017-09-19T19:12:14.549Z,95.80
2017-09-19T19:14:42.973Z,95.80
2017-09-19T19:17:11.315Z,95.70
2017-09-19T19:19:39.876Z,95.50
2017-09-19T19:22:08.394Z,95.60
2017-09-19T19:24:36.820Z,95.50
2017-09-19T19:27:05.585Z,95.50
2017-09-19T19:29:33.991Z,95.70
2017-09-19T19:32:02.425Z,96.00
2017-09-19T19:34:30.535Z,95.70
2017-09-19T19:36:58.871Z,95.70
2017-09-19T19:39:26.999Z,95.50
2017-09-19T19:41:56.393Z,95.70
2017-09-19T19:44:24.519Z,95.80
2017-09-19T19:46:53.744Z,95.10
2017-09-19T19:49:22.079Z,94.70
2017-09-19T19:51:51.010Z,95.40
2017-09-19T19:54:19.148Z,95.30
2017-09-19T19:56:47.252Z,95.40
2017-09-19T19:59:15.352Z,94.50
2017-09-19T20:01:43.461Z,94.60
2017-09-19T20:04:11.570Z,95.10
2017-09-19T20:06:40.515Z,95.80
2017-09-19T20:09:08.643Z,96.00
2017-09-19T20:11:36.773Z,95.90
2017-09-19T20:14:04.923Z,95.90
2017-09-19T20:16:33.032Z,95.90
2017-09-19T20:19:03.058Z,95.90
2017-09-19T20:21:32.671Z,95.70
2017-09-19T20:24:01.300Z,95.70
2017-09-19T20:26:29.460Z,95.80
2017-09-19T20:28:58.823Z,95.80
2017-09-19T20:31:26.936Z,95.80
2017-09-19T20:33:55.044Z,95.70
2017-09-19T20:36:23.156Z,95.70
2017-09-19T20:38:51.271Z,95.70
2017-09-19T20:41:19.374Z,95.80
2017-09-19T20:43:47.466Z,95.50
2017-09-19T20:46:16.368Z,95.60
2017-09-19T20:48:44.791Z,95.70
2017-09-19T20:51:12.905Z,95.80
2017-09-19T20:53:41.044Z,95.60
2017-09-19T20:56:09.166Z,96.10
2017-09-19T20:58:37.288Z,95.80
2017-09-19T21:01:05.971Z,95.90
2017-09-19T21:03:40.787Z,95.60
2017-09-19T21:06:14.711Z,95.30
2017-09-19T21:08:48.283Z,95.70
2017-09-19T21:11:22.068Z,95.60
2017-09-19T21:13:57.536Z,95.60
2017-09-19T21:16:31.363Z,95.60
2017-09-19T21:19:05.030Z,95.50
2017-09-19T21:21:33.848Z,95.40
2017-09-19T21:24:01.972Z,95.60
2017-09-19T21:26:31.165Z,95.60
2017-09-19T21:29:00.070Z,95.70
2017-09-19T21:31:28.485Z,95.70
2017-09-19T21:33:56.807Z,95.80
2017-09-19T21:36:24.900Z,95.80
2017-09-19T21:38:52.997Z,95.90
2017-09-19T21:41:21.351Z,95.90
2017-09-19T21:43:49.469Z,95.90
2017-09-19T21:46:17.615Z,95.90
2017-09-19T21:48:45.800Z,96.00
2017-09-19T21:51:14.674Z,96.00
2017-09-19T21:53:42.893Z,95.80
2017-09-19T21:56:11.028Z,95.90
2017-09-19T21:58:39.144Z,96.10
2017-09-19T22:01:07.252Z,96.00
2017-09-19T22:03:35.390Z,96.00
2017-09-19T22:06:03.922Z,95.70
2017-09-19T22:08:32.011Z,95.90
2017-09-19T22:11:00.124Z,95.80
2017-09-19T22:13:28.415Z,95.90
2017-09-19T22:15:57.289Z,96.00
2017-09-19T22:18:25.400Z,96.00
2017-09-19T22:20:53.521Z,95.90
2017-09-19T22:23:21.670Z,96.00
2017-09-19T22:25:49.866Z,95.90
2017-09-19T22:28:17.959Z,95.90
2017-09-19T22:30:46.828Z,95.80
2017-09-19T22:33:14.927Z,95.80
2017-09-19T22:35:43.808Z,96.00
2017-09-19T22:38:11.905Z,96.00
2017-09-19T22:40:40.020Z,95.90
2017-09-19T22:43:08.107Z,96.10
2017-09-19T22:45:36.195Z,95.90
2017-09-19T22:48:04.298Z,95.80
2017-09-19T22:50:32.466Z,95.80
2017-09-19T22:53:00.540Z,96.00
2017-09-19T22:55:28.656Z,95.80
2017-09-19T22:57:56.726Z,95.80
2017-09-19T23:00:25.876Z,95.70
2017-09-19T23:02:53.980Z,95.90
2017-09-19T23:05:22.121Z,95.90
2017-09-19T23:07:50.997Z,95.80
2017-09-19T23:10:19.084Z,95.80
2017-09-19T23:12:47.964Z,95.80
2017-09-19T23:15:16.299Z,95.80
2017-09-19T23:17:44.405Z,95.80
2017-09-19T23:20:12.499Z,95.70
2017-09-19T23:22:40.631Z,95.90
2017-09-19T23:25:09.634Z,96.00
2017-09-19T23:27:37.724Z,96.00
2017-09-19T23:30:06.604Z,96.10
2017-09-19T23:32:34.699Z,96.00
2017-09-19T23:35:02.810Z,95.90
2017-09-19T23:37:30.944Z,96.20
2017-09-19T23:39:59.055Z,96.20
2017-09-19T23:42:27.176Z,96.20
2017-09-19T23:44:55.260Z,95.90
2017-09-19T23:47:23.363Z,96.00
2017-09-19T23:49:51.471Z,95.80
2017-09-19T23:52:19.547Z,95.60
2017-09-19T23:54:48.011Z,95.70
2017-09-19T23:57:18.217Z,95.90
2017-09-19T23:59:46.319Z,96.10
